Weather History for Faribault, MN

Change the Weather History Date:

Monday, June 10, 2013

  Actual Average Record
Temperature  
Mean Temperature 64 °F -  
Max Temperature 73 °F 78 °F 98 °F (1956)
Min Temperature 55 °F 54 °F 37 °F (1972)
Degree Days  
Heating Degree Days 1    
Growing Degree Days 14 (Base 50)    
Moisture  
Dew Point 60 °F    
Average Humidity 92    
Maximum Humidity 100    
Minimum Humidity 69    
Precipitation  
Precipitation 0.00 in - - ()
Sea Level Pressure  
Sea Level Pressure 29.85 in    
Wind  
Wind Speed 2 mph (SW)    
Max Wind Speed 9 mph    
Max Gust Speed -    
Visibility 5 miles    
Events Fog    
Averages and records for this station are not official NWS values.
T = Trace of Precipitation, MM = Missing Value Source: NWS Daily Summary

Daily Weather History Graph

Daily Weather History Graph

Search for Another Location

Airport:

Trip Planner

Search our weather history database for the weather conditions in past years. The results will help you decide how hot, cold, wet, or windy it might be!

Date:

Astronomy

Jun. 10, 2013 Rise Set
Actual Time 5:28 AM CDT 8:56 PM CDT
Civil Twilight 4:52 AM CDT 9:33 PM CDT
Nautical Twilight 4:04 AM CDT 10:21 PM CDT
Astronomical Twilight 3:03 AM CDT 11:22 PM CDT
Moon 7:21 AM CDT (6/10) 10:19 PM CDT (6/10)
Length of Visible Light 16h 40m
Length of Day
15h 27m
Waxing Crescent, 4% of the Moon is Illuminated
Jun 10
Waxing Crescent
Jun 16
First Quarter
Jun 23
Full
Jun 29
Last Quarter
Jul 8
New

Hourly Weather History & Observations

Time (CDT) Temp. Dew Point Humidity Pressure Visibility Wind Dir Wind Speed Gust Speed Precip Events Conditions
12:14 AM 60.8 °F 60.8 °F 100% 29.82 in 2.0 mi ENE 4.6 mph - N/A   Mostly Cloudy
12:34 AM 59.0 °F 59.0 °F 100% 29.82 in 1.0 mi Calm Calm - N/A   Mostly Cloudy
12:54 AM 59.0 °F 59.0 °F 100% 29.82 in 1.0 mi Calm Calm - N/A   Mostly Cloudy
1:14 AM 57.2 °F 57.2 °F 100% 29.82 in 0.2 mi Calm Calm - N/A Fog Fog
1:34 AM 57.2 °F 57.2 °F 100% 29.82 in 1.0 mi Calm Calm - N/A   Mostly Cloudy
1:54 AM 57.2 °F 57.2 °F 100% 29.82 in 0.2 mi Calm Calm - N/A Fog Fog
2:14 AM 57.2 °F 57.2 °F 100% 29.82 in 0.2 mi Calm Calm - N/A Fog Fog
2:34 AM 55.4 °F 55.4 °F 100% 29.82 in 0.2 mi Calm Calm - N/A Fog Fog
2:54 AM 55.4 °F 55.4 °F 100% 29.82 in 0.2 mi Calm Calm - N/A Fog Fog
3:14 AM 55.4 °F 55.4 °F 100% 29.81 in 0.2 mi Calm Calm - N/A Fog Fog
3:34 AM 55.4 °F 55.4 °F 100% 29.81 in 0.2 mi Calm Calm - N/A Fog Fog
3:54 AM 55.4 °F 55.4 °F 100% 29.82 in 0.2 mi Calm Calm - N/A Fog Fog
4:14 AM 55.4 °F 55.4 °F 100% 29.82 in 0.2 mi Calm Calm - N/A Fog Fog
4:34 AM 55.4 °F 55.4 °F 100% 29.81 in 0.2 mi Calm Calm - N/A Fog Fog
4:54 AM 55.4 °F 55.4 °F 100% 29.82 in 0.2 mi Calm Calm - N/A Fog Fog
5:14 AM 57.2 °F 57.2 °F 100% 29.82 in 0.2 mi Calm Calm - N/A Fog Fog
5:34 AM 57.2 °F 57.2 °F 100% 29.82 in 0.2 mi Calm Calm - N/A Fog Fog
5:53 AM 57.2 °F 57.2 °F 100% 29.82 in 0.2 mi Calm Calm - N/A Fog Fog
6:14 AM 57.2 °F 57.2 °F 100% 29.83 in 0.2 mi Calm Calm - N/A Fog Fog
6:34 AM 57.2 °F 57.2 °F 100% 29.82 in 0.2 mi ESE 3.5 mph - N/A Fog Fog
6:54 AM 57.2 °F 57.2 °F 100% 29.82 in 0.2 mi Calm Calm - N/A Fog Fog
7:14 AM 57.2 °F 57.2 °F 100% 29.83 in 0.2 mi Calm Calm - N/A Fog Fog
7:34 AM 57.2 °F 57.2 °F 100% 29.83 in 0.2 mi Calm Calm - N/A Fog Fog
7:54 AM 57.2 °F 57.2 °F 100% 29.83 in 0.2 mi Calm Calm - N/A Fog Fog
8:14 AM 57.2 °F 57.2 °F 100% 29.85 in 0.2 mi Calm Calm - N/A Fog Fog
8:34 AM 57.2 °F 57.2 °F 100% 29.85 in 0.2 mi Calm Calm - N/A Fog Fog
8:54 AM 59.0 °F 59.0 °F 100% 29.86 in 0.2 mi SW 4.6 mph - N/A Fog Fog
9:14 AM 60.8 °F 60.8 °F 100% 29.86 in 2.5 mi WSW 6.9 mph - N/A   Overcast
9:34 AM 60.8 °F 60.8 °F 100% 29.88 in 3.0 mi West 9.2 mph - N/A   Overcast
9:54 AM 60.8 °F 60.8 °F 100% 29.87 in 2.5 mi Calm Calm - N/A   Overcast
10:14 AM 60.8 °F 60.8 °F 100% 29.87 in 2.5 mi NNW 4.6 mph - N/A   Overcast
10:34 AM 62.6 °F 62.6 °F 100% 29.88 in 3.0 mi NNW 4.6 mph - N/A   Overcast
10:53 AM 62.6 °F 62.6 °F 100% 29.88 in 4.0 mi WNW 4.6 mph - N/A   Overcast
11:14 AM 62.6 °F 62.6 °F 100% 29.88 in 4.0 mi NW 3.5 mph - N/A   Overcast
11:34 AM 62.6 °F 62.6 °F 100% 29.87 in 5.0 mi Calm Calm - N/A   Overcast
11:54 AM 62.6 °F 62.6 °F 100% 29.88 in 4.0 mi Calm Calm - N/A   Overcast
12:14 PM 64.4 °F 64.4 °F 100% 29.87 in 7.0 mi Calm Calm - N/A   Overcast
12:34 PM 64.4 °F 64.4 °F 100% 29.86 in 10.0 mi Calm Calm - N/A   Overcast
12:54 PM 66.2 °F 64.4 °F 94% 29.87 in 10.0 mi Calm Calm - N/A   Mostly Cloudy
1:14 PM 69.8 °F 64.4 °F 83% 29.86 in 10.0 mi West 4.6 mph - N/A   Mostly Cloudy
1:34 PM 68.0 °F 64.4 °F 88% 29.86 in 10.0 mi Calm Calm - N/A   Overcast
1:54 PM 69.8 °F 64.4 °F 83% 29.86 in 7.0 mi SSW 4.6 mph - N/A   Mostly Cloudy
2:14 PM 69.8 °F 64.4 °F 83% 29.87 in 10.0 mi SW 4.6 mph - N/A   Scattered Clouds
2:33 PM 71.6 °F 64.4 °F 78% 29.86 in 10.0 mi South 8.1 mph - N/A   Overcast
2:54 PM 71.6 °F 64.4 °F 78% 29.87 in 10.0 mi SW 5.8 mph - N/A   Scattered Clouds
3:13 PM 71.6 °F 62.6 °F 73% 29.87 in 10.0 mi WSW 6.9 mph - N/A   Clear
3:34 PM 71.6 °F 62.6 °F 73% 29.86 in 10.0 mi SW 4.6 mph - N/A   Scattered Clouds
3:54 PM 71.6 °F 64.4 °F 78% 29.86 in 10.0 mi South 4.6 mph - N/A   Mostly Cloudy
4:14 PM 69.8 °F 62.6 °F 78% 29.86 in 10.0 mi South 5.8 mph - N/A   Mostly Cloudy
4:34 PM 71.6 °F 62.6 °F 73% 29.86 in 10.0 mi SSE 8.1 mph - N/A   Mostly Cloudy
4:54 PM 71.6 °F 62.6 °F 73% 29.85 in 10.0 mi SSW 3.5 mph - N/A   Scattered Clouds
5:14 PM 73.4 °F 62.6 °F 69% 29.86 in 10.0 mi WSW 4.6 mph - N/A   Scattered Clouds
5:34 PM 73.4 °F 62.6 °F 69% 29.86 in 10.0 mi WSW 5.8 mph - N/A   Scattered Clouds
5:54 PM 73.4 °F 62.6 °F 69% 29.86 in 10.0 mi West 5.8 mph - N/A   Mostly Cloudy
6:14 PM 73.4 °F 62.6 °F 69% 29.86 in 10.0 mi SW 4.6 mph - N/A   Scattered Clouds
6:34 PM 71.6 °F 62.6 °F 73% 29.86 in 10.0 mi SW 4.6 mph - N/A   Clear
6:54 PM 71.6 °F 60.8 °F 69% 29.86 in 10.0 mi SW 3.5 mph - N/A   Clear
7:14 PM 71.6 °F 62.6 °F 73% 29.86 in 10.0 mi WSW 3.5 mph - N/A   Clear
7:34 PM 71.6 °F 62.6 °F 73% 29.86 in 10.0 mi SW 3.5 mph - N/A   Clear
7:54 PM 69.8 °F 62.6 °F 78% 29.85 in 10.0 mi SW 3.5 mph - N/A   Clear
8:14 PM 69.8 °F 62.6 °F 78% 29.85 in 10.0 mi Calm Calm - N/A   Clear
8:34 PM 68.0 °F 62.6 °F 83% 29.85 in 10.0 mi Calm Calm - N/A   Clear
8:54 PM 66.2 °F 62.6 °F 88% 29.86 in 10.0 mi Calm Calm - N/A   Clear
9:13 PM 64.4 °F 62.6 °F 94% 29.85 in 10.0 mi Calm Calm - N/A   Clear
9:34 PM 62.6 °F 60.8 °F 94% 29.86 in 10.0 mi Calm Calm - N/A   Clear
9:54 PM 62.6 °F 62.6 °F 100% 29.86 in 7.0 mi Calm Calm - N/A   Clear
10:14 PM 60.8 °F 60.8 °F 100% 29.87 in 7.0 mi Calm Calm - N/A   Clear
10:34 PM 60.8 °F 60.8 °F 100% 29.87 in 5.0 mi Calm Calm - N/A   Clear
10:54 PM 59.0 °F 59.0 °F 100% 29.87 in 4.0 mi Calm Calm - N/A   Clear
11:14 PM 59.0 °F 59.0 °F 100% 29.87 in 2.5 mi Calm Calm - N/A   Clear
11:33 PM 60.8 °F 60.8 °F 100% 29.87 in 5.0 mi Calm Calm - N/A   Clear
11:54 PM 57.2 °F 57.2 °F 100% 29.87 in 5.0 mi Calm Calm - N/A   Clear